sensor_id;sensor_type;location;lat;lon;timestamp;temperature;humidity
19389;DHT22;9830;41.876;23.474;2022-10-22T00:00:08;1.50;99.90
19389;DHT22;9830;41.876;23.474;2022-10-22T00:02:34;1.40;99.90
19389;DHT22;9830;41.876;23.474;2022-10-22T00:05:00;1.40;99.90
19389;DHT22;9830;41.876;23.474;2022-10-22T00:07:26;1.30;99.90
19389;DHT22;9830;41.876;23.474;2022-10-22T00:09:51;1.30;99.90
19389;DHT22;9830;41.876;23.474;2022-10-22T00:12:18;1.30;99.90
19389;DHT22;9830;41.876;23.474;2022-10-22T00:14:44;1.30;99.90
19389;DHT22;9830;41.876;23.474;2022-10-22T00:17:09;1.30;99.90
19389;DHT22;9830;41.876;23.474;2022-10-22T00:19:35;1.30;99.90
19389;DHT22;9830;41.876;23.474;2022-10-22T00:22:01;1.30;99.90
19389;DHT22;9830;41.876;23.474;2022-10-22T00:24:30;1.40;99.90
19389;DHT22;9830;41.876;23.474;2022-10-22T00:26:56;1.40;99.90
19389;DHT22;9830;41.876;23.474;2022-10-22T00:29:22;1.30;99.90
19389;DHT22;9830;41.876;23.474;2022-10-22T00:31:48;1.30;99.90
19389;DHT22;9830;41.876;23.474;2022-10-22T00:34:16;1.30;99.90
19389;DHT22;9830;41.876;23.474;2022-10-22T00:36:42;1.40;99.90
19389;DHT22;9830;41.876;23.474;2022-10-22T00:39:08;1.30;99.90
19389;DHT22;9830;41.876;23.474;2022-10-22T00:41:34;1.10;99.90
19389;DHT22;9830;41.876;23.474;2022-10-22T00:44:03;1.10;99.90
19389;DHT22;9830;41.876;23.474;2022-10-22T00:46:29;1.10;99.90
19389;DHT22;9830;41.876;23.474;2022-10-22T00:48:57;1.10;99.90
19389;DHT22;9830;41.876;23.474;2022-10-22T00:51:27;1.20;99.90
19389;DHT22;9830;41.876;23.474;2022-10-22T00:53:57;1.20;99.90
19389;DHT22;9830;41.876;23.474;2022-10-22T00:56:24;1.10;99.90
19389;DHT22;9830;41.876;23.474;2022-10-22T00:58:58;1.00;99.90
19389;DHT22;9830;41.876;23.474;2022-10-22T01:01:30;1.00;99.90
19389;DHT22;9830;41.876;23.474;2022-10-22T01:03:56;1.00;99.90
19389;DHT22;9830;41.876;23.474;2022-10-22T01:06:31;1.00;99.90
19389;DHT22;9830;41.876;23.474;2022-10-22T01:09:06;0.80;99.90
19389;DHT22;9830;41.876;23.474;2022-10-22T01:17:07;0.80;99.90
19389;DHT22;9830;41.876;23.474;2022-10-22T01:28:23;0.90;99.90
19389;DHT22;9830;41.876;23.474;2022-10-22T01:30:53;0.90;99.90
19389;DHT22;9830;41.876;23.474;2022-10-22T01:33:22;1.00;99.90
19389;DHT22;9830;41.876;23.474;2022-10-22T01:35:49;0.90;99.90
19389;DHT22;9830;41.876;23.474;2022-10-22T01:38:20;0.90;99.90
19389;DHT22;9830;41.876;23.474;2022-10-22T01:40:48;0.80;99.90
19389;DHT22;9830;41.876;23.474;2022-10-22T01:43:15;0.80;99.90
19389;DHT22;9830;41.876;23.474;2022-10-22T01:45:55;0.90;99.90
19389;DHT22;9830;41.876;23.474;2022-10-22T01:51:12;0.60;99.90
19389;DHT22;9830;41.876;23.474;2022-10-22T01:59:58;0.80;99.90
19389;DHT22;9830;41.876;23.474;2022-10-22T02:02:54;0.80;99.90
19389;DHT22;9830;41.876;23.474;2022-10-22T02:08:02;0.70;99.90
19389;DHT22;9830;41.876;23.474;2022-10-22T02:10:30;0.50;99.90
19389;DHT22;9830;41.876;23.474;2022-10-22T02:12:57;0.40;99.90
19389;DHT22;9830;41.876;23.474;2022-10-22T02:15:25;0.40;99.90
19389;DHT22;9830;41.876;23.474;2022-10-22T02:17:53;0.40;99.90
19389;DHT22;9830;41.876;23.474;2022-10-22T02:20:32;0.50;99.90
19389;DHT22;9830;41.876;23.474;2022-10-22T02:22:59;0.60;99.90
19389;DHT22;9830;41.876;23.474;2022-10-22T02:25:29;0.60;99.90
19389;DHT22;9830;41.876;23.474;2022-10-22T02:30:25;0.60;99.90
19389;DHT22;9830;41.876;23.474;2022-10-22T02:35:21;0.50;99.90
19389;DHT22;9830;41.876;23.474;2022-10-22T02:37:48;0.50;99.90
19389;DHT22;9830;41.876;23.474;2022-10-22T02:40:14;0.50;99.90
19389;DHT22;9830;41.876;23.474;2022-10-22T02:42:41;0.50;99.90
19389;DHT22;9830;41.876;23.474;2022-10-22T02:45:07;0.60;99.90
19389;DHT22;9830;41.876;23.474;2022-10-22T02:47:33;0.60;99.90
19389;DHT22;9830;41.876;23.474;2022-10-22T02:49:59;0.50;99.90
19389;DHT22;9830;41.876;23.474;2022-10-22T02:52:25;0.60;99.90
19389;DHT22;9830;41.876;23.474;2022-10-22T02:54:50;0.50;99.90
19389;DHT22;9830;41.876;23.474;2022-10-22T02:57:16;0.50;99.90
19389;DHT22;9830;41.876;23.474;2022-10-22T02:59:42;0.40;99.90
19389;DHT22;9830;41.876;23.474;2022-10-22T03:02:07;0.50;99.90
19389;DHT22;9830;41.876;23.474;2022-10-22T03:04:33;0.40;99.90
19389;DHT22;9830;41.876;23.474;2022-10-22T03:06:59;0.40;99.90
19389;DHT22;9830;41.876;23.474;2022-10-22T03:09:25;0.40;99.90
19389;DHT22;9830;41.876;23.474;2022-10-22T03:11:51;0.40;99.90
19389;DHT22;9830;41.876;23.474;2022-10-22T03:14:17;0.40;99.90
19389;DHT22;9830;41.876;23.474;2022-10-22T03:16:42;0.40;99.90
19389;DHT22;9830;41.876;23.474;2022-10-22T03:19:08;0.30;99.90
19389;DHT22;9830;41.876;23.474;2022-10-22T03:22:04;0.30;99.90
19389;DHT22;9830;41.876;23.474;2022-10-22T03:24:53;0.30;99.90
19389;DHT22;9830;41.876;23.474;2022-10-22T03:27:21;0.20;99.90
19389;DHT22;9830;41.876;23.474;2022-10-22T03:29:48;0.20;99.90
19389;DHT22;9830;41.876;23.474;2022-10-22T03:32:14;0.20;99.90
19389;DHT22;9830;41.876;23.474;2022-10-22T03:34:40;0.30;99.90
19389;DHT22;9830;41.876;23.474;2022-10-22T03:37:05;0.10;99.90
19389;DHT22;9830;41.876;23.474;2022-10-22T03:39:32;0.00;99.90
19389;DHT22;9830;41.876;23.474;2022-10-22T03:41:59;0.10;99.90
19389;DHT22;9830;41.876;23.474;2022-10-22T03:44:25;0.10;99.90
19389;DHT22;9830;41.876;23.474;2022-10-22T03:46:52;0.10;99.90
19389;DHT22;9830;41.876;23.474;2022-10-22T03:49:17;0.10;99.90
19389;DHT22;9830;41.876;23.474;2022-10-22T03:51:43;0.20;99.90
19389;DHT22;9830;41.876;23.474;2022-10-22T03:54:09;0.30;99.90
19389;DHT22;9830;41.876;23.474;2022-10-22T03:56:34;0.20;99.90
19389;DHT22;9830;41.876;23.474;2022-10-22T03:59:00;0.10;99.90
19389;DHT22;9830;41.876;23.474;2022-10-22T04:01:27;0.10;99.90
19389;DHT22;9830;41.876;23.474;2022-10-22T04:03:54;0.10;99.90
19389;DHT22;9830;41.876;23.474;2022-10-22T04:06:20;0.00;99.90
19389;DHT22;9830;41.876;23.474;2022-10-22T04:08:46;0.10;99.90
19389;DHT22;9830;41.876;23.474;2022-10-22T04:11:12;0.20;99.90
19389;DHT22;9830;41.876;23.474;2022-10-22T04:13:38;0.00;99.90
19389;DHT22;9830;41.876;23.474;2022-10-22T04:16:14;0.00;99.90
19389;DHT22;9830;41.876;23.474;2022-10-22T04:18:41;0.10;99.90
19389;DHT22;9830;41.876;23.474;2022-10-22T04:21:08;0.00;99.90
19389;DHT22;9830;41.876;23.474;2022-10-22T04:23:34;-0.10;99.90
19389;DHT22;9830;41.876;23.474;2022-10-22T04:26:03;0.00;99.90
19389;DHT22;9830;41.876;23.474;2022-10-22T04:28:29;-0.10;99.90
19389;DHT22;9830;41.876;23.474;2022-10-22T04:30:54;-0.10;99.90
19389;DHT22;9830;41.876;23.474;2022-10-22T04:33:20;-0.10;99.90
19389;DHT22;9830;41.876;23.474;2022-10-22T04:35:46;-0.10;99.90
19389;DHT22;9830;41.876;23.474;2022-10-22T04:38:12;-0.20;99.90
19389;DHT22;9830;41.876;23.474;2022-10-22T04:40:38;-0.10;99.90
19389;DHT22;9830;41.876;23.474;2022-10-22T04:43:04;-0.10;99.90
19389;DHT22;9830;41.876;23.474;2022-10-22T04:45:31;-0.10;99.90
19389;DHT22;9830;41.876;23.474;2022-10-22T04:47:56;0.00;99.90
19389;DHT22;9830;41.876;23.474;2022-10-22T04:50:22;0.00;99.90
19389;DHT22;9830;41.876;23.474;2022-10-22T04:52:48;0.10;99.90
19389;DHT22;9830;41.876;23.474;2022-10-22T04:55:13;0.20;99.90
19389;DHT22;9830;41.876;23.474;2022-10-22T04:57:39;0.10;99.90
19389;DHT22;9830;41.876;23.474;2022-10-22T05:00:05;0.10;99.90
19389;DHT22;9830;41.876;23.474;2022-10-22T05:02:31;0.20;99.90
19389;DHT22;9830;41.876;23.474;2022-10-22T05:04:57;0.40;99.90
19389;DHT22;9830;41.876;23.474;2022-10-22T05:07:23;0.70;99.90
19389;DHT22;9830;41.876;23.474;2022-10-22T05:09:49;0.70;99.90
19389;DHT22;9830;41.876;23.474;2022-10-22T05:12:14;0.90;99.90
19389;DHT22;9830;41.876;23.474;2022-10-22T05:14:40;1.10;99.90
19389;DHT22;9830;41.876;23.474;2022-10-22T05:17:06;1.30;99.90
19389;DHT22;9830;41.876;23.474;2022-10-22T05:19:31;1.50;99.90
19389;DHT22;9830;41.876;23.474;2022-10-22T05:22:00;1.80;99.90
19389;DHT22;9830;41.876;23.474;2022-10-22T05:24:26;1.70;99.90
19389;DHT22;9830;41.876;23.474;2022-10-22T05:26:54;1.90;99.90
19389;DHT22;9830;41.876;23.474;2022-10-22T05:29:21;2.10;99.90
19389;DHT22;9830;41.876;23.474;2022-10-22T05:31:47;2.20;99.90
19389;DHT22;9830;41.876;23.474;2022-10-22T05:34:12;2.40;99.90
19389;DHT22;9830;41.876;23.474;2022-10-22T05:36:38;2.90;99.90
19389;DHT22;9830;41.876;23.474;2022-10-22T05:39:04;3.60;99.90
19389;DHT22;9830;41.876;23.474;2022-10-22T05:41:31;3.80;99.90
19389;DHT22;9830;41.876;23.474;2022-10-22T05:43:58;3.90;99.90
19389;DHT22;9830;41.876;23.474;2022-10-22T05:46:26;4.30;99.90
19389;DHT22;9830;41.876;23.474;2022-10-22T05:48:56;5.50;99.80
19389;DHT22;9830;41.876;23.474;2022-10-22T05:51:23;6.10;96.60
19389;DHT22;9830;41.876;23.474;2022-10-22T05:53:57;5.30;97.70
19389;DHT22;9830;41.876;23.474;2022-10-22T05:56:23;4.70;99.90
19389;DHT22;9830;41.876;23.474;2022-10-22T05:58:49;4.00;99.90
19389;DHT22;9830;41.876;23.474;2022-10-22T06:01:30;3.40;99.90
19389;DHT22;9830;41.876;23.474;2022-10-22T06:04:02;3.40;99.90
19389;DHT22;9830;41.876;23.474;2022-10-22T06:06:31;3.20;99.90
19389;DHT22;9830;41.876;23.474;2022-10-22T06:09:11;3.60;99.90
19389;DHT22;9830;41.876;23.474;2022-10-22T06:11:38;3.40;99.90
19389;DHT22;9830;41.876;23.474;2022-10-22T06:14:04;3.60;99.90
19389;DHT22;9830;41.876;23.474;2022-10-22T06:16:30;4.10;99.90
19389;DHT22;9830;41.876;23.474;2022-10-22T06:18:58;4.30;99.90
19389;DHT22;9830;41.876;23.474;2022-10-22T06:21:26;5.00;99.90
19389;DHT22;9830;41.876;23.474;2022-10-22T06:23:55;5.50;99.90
19389;DHT22;9830;41.876;23.474;2022-10-22T06:26:21;6.50;98.40
19389;DHT22;9830;41.876;23.474;2022-10-22T06:28:46;7.00;96.10
19389;DHT22;9830;41.876;23.474;2022-10-22T06:31:12;7.80;93.70
19389;DHT22;9830;41.876;23.474;2022-10-22T06:33:39;8.80;90.10
19389;DHT22;9830;41.876;23.474;2022-10-22T06:36:19;9.00;88.60
19389;DHT22;9830;41.876;23.474;2022-10-22T06:38:45;10.50;74.40
19389;DHT22;9830;41.876;23.474;2022-10-22T06:41:13;11.80;70.40
19389;DHT22;9830;41.876;23.474;2022-10-22T06:43:40;11.40;69.20
19389;DHT22;9830;41.876;23.474;2022-10-22T06:46:08;12.10;69.70
19389;DHT22;9830;41.876;23.474;2022-10-22T06:48:34;13.30;62.10
19389;DHT22;9830;41.876;23.474;2022-10-22T06:51:08;13.90;59.10
19389;DHT22;9830;41.876;23.474;2022-10-22T06:53:35;14.40;56.90
19389;DHT22;9830;41.876;23.474;2022-10-22T06:56:09;13.20;57.80
19389;DHT22;9830;41.876;23.474;2022-10-22T06:58:35;12.30;62.80
19389;DHT22;9830;41.876;23.474;2022-10-22T07:01:03;12.50;64.40
19389;DHT22;9830;41.876;23.474;2022-10-22T07:03:30;11.50;69.70
19389;DHT22;9830;41.876;23.474;2022-10-22T07:05:58;10.30;77.20
19389;DHT22;9830;41.876;23.474;2022-10-22T07:08:24;9.20;87.50
19389;DHT22;9830;41.876;23.474;2022-10-22T07:10:50;9.00;91.70
19389;DHT22;9830;41.876;23.474;2022-10-22T07:13:15;10.40;87.20
19389;DHT22;9830;41.876;23.474;2022-10-22T07:15:41;11.70;77.60
19389;DHT22;9830;41.876;23.474;2022-10-22T07:18:07;12.90;70.90
19389;DHT22;9830;41.876;23.474;2022-10-22T07:20:32;14.20;61.70
19389;DHT22;9830;41.876;23.474;2022-10-22T07:22:58;14.30;61.70
19389;DHT22;9830;41.876;23.474;2022-10-22T07:25:24;15.40;58.60
19389;DHT22;9830;41.876;23.474;2022-10-22T07:27:49;16.00;55.00
19389;DHT22;9830;41.876;23.474;2022-10-22T07:30:17;15.80;55.90
19389;DHT22;9830;41.876;23.474;2022-10-22T07:32:42;15.60;55.30
19389;DHT22;9830;41.876;23.474;2022-10-22T07:35:08;14.60;58.80
19389;DHT22;9830;41.876;23.474;2022-10-22T07:37:34;15.20;58.50
19389;DHT22;9830;41.876;23.474;2022-10-22T07:40:00;16.60;53.40
19389;DHT22;9830;41.876;23.474;2022-10-22T07:42:25;16.00;54.40
19389;DHT22;9830;41.876;23.474;2022-10-22T07:44:51;15.50;56.60
19389;DHT22;9830;41.876;23.474;2022-10-22T07:47:17;17.80;52.10
19389;DHT22;9830;41.876;23.474;2022-10-22T07:49:42;18.40;50.30
19389;DHT22;9830;41.876;23.474;2022-10-22T07:52:08;17.20;51.80
19389;DHT22;9830;41.876;23.474;2022-10-22T07:54:34;18.70;49.20
19389;DHT22;9830;41.876;23.474;2022-10-22T07:56:59;19.00;48.00
19389;DHT22;9830;41.876;23.474;2022-10-22T07:59:25;20.20;45.60
19389;DHT22;9830;41.876;23.474;2022-10-22T08:01:51;19.50;45.90
19389;DHT22;9830;41.876;23.474;2022-10-22T08:04:16;19.30;46.60
19389;DHT22;9830;41.876;23.474;2022-10-22T08:06:42;19.30;47.40
19389;DHT22;9830;41.876;23.474;2022-10-22T08:09:08;18.10;49.00
19389;DHT22;9830;41.876;23.474;2022-10-22T08:11:33;17.60;50.50
19389;DHT22;9830;41.876;23.474;2022-10-22T08:13:59;18.40;49.80
19389;DHT22;9830;41.876;23.474;2022-10-22T08:16:25;19.50;48.20
19389;DHT22;9830;41.876;23.474;2022-10-22T08:18:50;20.50;45.80
19389;DHT22;9830;41.876;23.474;2022-10-22T08:21:16;19.80;46.20
19389;DHT22;9830;41.876;23.474;2022-10-22T08:23:42;19.60;47.70
19389;DHT22;9830;41.876;23.474;2022-10-22T08:26:09;20.10;44.40
19389;DHT22;9830;41.876;23.474;2022-10-22T08:28:35;20.00;45.60
19389;DHT22;9830;41.876;23.474;2022-10-22T08:31:08;19.90;45.20
19389;DHT22;9830;41.876;23.474;2022-10-22T08:33:34;21.10;43.60
19389;DHT22;9830;41.876;23.474;2022-10-22T08:35:59;21.20;43.00
19389;DHT22;9830;41.876;23.474;2022-10-22T08:38:25;22.00;41.50
19389;DHT22;9830;41.876;23.474;2022-10-22T08:40:56;21.60;42.20
19389;DHT22;9830;41.876;23.474;2022-10-22T08:48:42;20.90;43.40
19389;DHT22;9830;41.876;23.474;2022-10-22T08:51:15;21.20;43.10
19389;DHT22;9830;41.876;23.474;2022-10-22T08:56:30;22.00;42.10
19389;DHT22;9830;41.876;23.474;2022-10-22T08:59:09;23.00;40.00
19389;DHT22;9830;41.876;23.474;2022-10-22T09:01:46;22.80;40.30
19389;DHT22;9830;41.876;23.474;2022-10-22T09:04:22;23.50;39.40
19389;DHT22;9830;41.876;23.474;2022-10-22T09:06:52;21.80;42.80
19389;DHT22;9830;41.876;23.474;2022-10-22T09:09:19;22.00;42.30
19389;DHT22;9830;41.876;23.474;2022-10-22T09:11:50;21.50;42.10
19389;DHT22;9830;41.876;23.474;2022-10-22T09:14:19;21.20;42.90
19389;DHT22;9830;41.876;23.474;2022-10-22T09:22:39;23.70;40.00
19389;DHT22;9830;41.876;23.474;2022-10-22T09:25:19;22.50;41.20
19389;DHT22;9830;41.876;23.474;2022-10-22T09:27:46;23.70;39.60
19389;DHT22;9830;41.876;23.474;2022-10-22T09:30:27;23.50;39.50
19389;DHT22;9830;41.876;23.474;2022-10-22T09:32:58;22.00;41.90
19389;DHT22;9830;41.876;23.474;2022-10-22T09:35:25;21.50;43.50
19389;DHT22;9830;41.876;23.474;2022-10-22T09:37:53;21.60;43.70
19389;DHT22;9830;41.876;23.474;2022-10-22T09:40:20;23.20;40.90
19389;DHT22;9830;41.876;23.474;2022-10-22T09:42:47;22.10;41.80
19389;DHT22;9830;41.876;23.474;2022-10-22T09:45:22;22.70;40.90
19389;DHT22;9830;41.876;23.474;2022-10-22T09:47:48;23.20;40.10
19389;DHT22;9830;41.876;23.474;2022-10-22T09:50:41;22.80;39.80
19389;DHT22;9830;41.876;23.474;2022-10-22T09:53:37;22.30;41.10
19389;DHT22;9830;41.876;23.474;2022-10-22T09:56:16;22.90;39.90
19389;DHT22;9830;41.876;23.474;2022-10-22T09:58:43;23.00;39.90
19389;DHT22;9830;41.876;23.474;2022-10-22T10:01:16;23.90;37.30
19389;DHT22;9830;41.876;23.474;2022-10-22T10:03:42;24.00;38.10
19389;DHT22;9830;41.876;23.474;2022-10-22T10:06:08;24.00;37.70
19389;DHT22;9830;41.876;23.474;2022-10-22T10:08:33;24.10;37.30
19389;DHT22;9830;41.876;23.474;2022-10-22T10:11:25;23.70;38.80
19389;DHT22;9830;41.876;23.474;2022-10-22T10:31:37;23.70;38.10
19389;DHT22;9830;41.876;23.474;2022-10-22T10:37:09;23.10;38.70
19389;DHT22;9830;41.876;23.474;2022-10-22T10:40:30;23.20;40.10
19389;DHT22;9830;41.876;23.474;2022-10-22T10:42:56;23.10;40.10
19389;DHT22;9830;41.876;23.474;2022-10-22T10:54:24;21.20;41.00
19389;DHT22;9830;41.876;23.474;2022-10-22T11:10:33;21.00;42.80
19389;DHT22;9830;41.876;23.474;2022-10-22T11:16:15;20.70;42.70
19389;DHT22;9830;41.876;23.474;2022-10-22T11:18:54;20.80;42.20
19389;DHT22;9830;41.876;23.474;2022-10-22T11:29:53;21.30;42.80
19389;DHT22;9830;41.876;23.474;2022-10-22T11:32:22;21.60;43.80
19389;DHT22;9830;41.876;23.474;2022-10-22T11:34:55;21.60;42.20
19389;DHT22;9830;41.876;23.474;2022-10-22T11:37:23;21.80;41.70
19389;DHT22;9830;41.876;23.474;2022-10-22T11:39:53;21.90;41.20
19389;DHT22;9830;41.876;23.474;2022-10-22T11:42:40;21.60;40.70
19389;DHT22;9830;41.876;23.474;2022-10-22T11:53:01;21.90;41.50
19389;DHT22;9830;41.876;23.474;2022-10-22T11:55:33;22.00;41.40
19389;DHT22;9830;41.876;23.474;2022-10-22T12:08:55;22.10;40.60
19389;DHT22;9830;41.876;23.474;2022-10-22T12:21:39;22.00;41.70
19389;DHT22;9830;41.876;23.474;2022-10-22T12:24:06;22.00;40.80
19389;DHT22;9830;41.876;23.474;2022-10-22T12:26:36;21.90;41.50
19389;DHT22;9830;41.876;23.474;2022-10-22T12:29:08;21.70;41.70
19389;DHT22;9830;41.876;23.474;2022-10-22T12:31:37;21.90;41.90
19389;DHT22;9830;41.876;23.474;2022-10-22T12:34:04;22.00;42.60
19389;DHT22;9830;41.876;23.474;2022-10-22T12:36:33;22.00;42.30
19389;DHT22;9830;41.876;23.474;2022-10-22T12:39:01;21.90;42.00
19389;DHT22;9830;41.876;23.474;2022-10-22T12:41:32;21.80;43.30
19389;DHT22;9830;41.876;23.474;2022-10-22T12:43:59;21.80;42.80
19389;DHT22;9830;41.876;23.474;2022-10-22T12:46:26;21.90;42.50
19389;DHT22;9830;41.876;23.474;2022-10-22T12:48:53;21.70;42.50
19389;DHT22;9830;41.876;23.474;2022-10-22T12:51:20;21.70;42.60
19389;DHT22;9830;41.876;23.474;2022-10-22T12:53:49;21.70;42.70
19389;DHT22;9830;41.876;23.474;2022-10-22T12:56:22;21.70;43.10
19389;DHT22;9830;41.876;23.474;2022-10-22T12:58:55;21.70;42.90
19389;DHT22;9830;41.876;23.474;2022-10-22T13:01:24;21.60;44.30
19389;DHT22;9830;41.876;23.474;2022-10-22T13:06:43;21.60;43.40
19389;DHT22;9830;41.876;23.474;2022-10-22T13:09:19;21.50;43.50
19389;DHT22;9830;41.876;23.474;2022-10-22T13:11:54;21.30;43.70
19389;DHT22;9830;41.876;23.474;2022-10-22T13:17:14;21.30;44.50
19389;DHT22;9830;41.876;23.474;2022-10-22T13:22:34;21.30;44.30
19389;DHT22;9830;41.876;23.474;2022-10-22T13:27:57;21.70;44.10
19389;DHT22;9830;41.876;23.474;2022-10-22T13:35:27;21.70;44.00
19389;DHT22;9830;41.876;23.474;2022-10-22T13:37:54;21.80;43.70
19389;DHT22;9830;41.876;23.474;2022-10-22T13:40:20;21.80;43.40
19389;DHT22;9830;41.876;23.474;2022-10-22T13:42:46;21.70;43.30
19389;DHT22;9830;41.876;23.474;2022-10-22T13:45:12;21.70;43.70
19389;DHT22;9830;41.876;23.474;2022-10-22T13:47:38;21.50;44.20
19389;DHT22;9830;41.876;23.474;2022-10-22T13:50:14;21.40;44.00
19389;DHT22;9830;41.876;23.474;2022-10-22T13:52:43;21.40;44.30
19389;DHT22;9830;41.876;23.474;2022-10-22T13:55:19;21.30;44.40
19389;DHT22;9830;41.876;23.474;2022-10-22T13:57:45;21.30;44.20
19389;DHT22;9830;41.876;23.474;2022-10-22T14:00:17;21.20;44.50
19389;DHT22;9830;41.876;23.474;2022-10-22T14:02:49;21.00;45.20
19389;DHT22;9830;41.876;23.474;2022-10-22T14:05:17;21.10;44.90
19389;DHT22;9830;41.876;23.474;2022-10-22T14:07:43;21.20;44.70
19389;DHT22;9830;41.876;23.474;2022-10-22T14:12:42;20.90;45.70
19389;DHT22;9830;41.876;23.474;2022-10-22T14:15:12;20.90;45.60
19389;DHT22;9830;41.876;23.474;2022-10-22T14:17:39;20.80;45.90
19389;DHT22;9830;41.876;23.474;2022-10-22T14:20:16;20.70;46.40
19389;DHT22;9830;41.876;23.474;2022-10-22T14:22:44;20.70;46.00
19389;DHT22;9830;41.876;23.474;2022-10-22T14:25:17;20.60;46.00
19389;DHT22;9830;41.876;23.474;2022-10-22T14:27:43;20.40;47.10
19389;DHT22;9830;41.876;23.474;2022-10-22T14:30:20;20.20;46.90
19389;DHT22;9830;41.876;23.474;2022-10-22T14:32:46;20.10;47.80
19389;DHT22;9830;41.876;23.474;2022-10-22T14:35:17;20.00;48.30
19389;DHT22;9830;41.876;23.474;2022-10-22T14:37:43;19.90;48.60
19389;DHT22;9830;41.876;23.474;2022-10-22T14:40:13;19.80;49.10
19389;DHT22;9830;41.876;23.474;2022-10-22T14:42:42;19.60;49.90
19389;DHT22;9830;41.876;23.474;2022-10-22T14:45:20;19.50;51.60
19389;DHT22;9830;41.876;23.474;2022-10-22T14:47:47;19.40;51.50
19389;DHT22;9830;41.876;23.474;2022-10-22T14:50:13;19.20;52.60
19389;DHT22;9830;41.876;23.474;2022-10-22T14:52:40;18.90;54.20
19389;DHT22;9830;41.876;23.474;2022-10-22T14:55:10;18.70;57.90
19389;DHT22;9830;41.876;23.474;2022-10-22T14:57:37;18.50;58.50
19389;DHT22;9830;41.876;23.474;2022-10-22T15:00:08;18.40;58.50
19389;DHT22;9830;41.876;23.474;2022-10-22T15:02:34;18.20;58.60
19389;DHT22;9830;41.876;23.474;2022-10-22T15:05:00;17.90;58.50
19389;DHT22;9830;41.876;23.474;2022-10-22T15:07:25;17.60;60.50
19389;DHT22;9830;41.876;23.474;2022-10-22T15:09:52;17.30;62.20
19389;DHT22;9830;41.876;23.474;2022-10-22T15:12:18;17.00;65.00
19389;DHT22;9830;41.876;23.474;2022-10-22T15:14:48;16.70;66.40
19389;DHT22;9830;41.876;23.474;2022-10-22T15:17:15;16.40;67.80
19389;DHT22;9830;41.876;23.474;2022-10-22T15:19:41;16.10;68.80
19389;DHT22;9830;41.876;23.474;2022-10-22T15:22:10;15.90;70.40
19389;DHT22;9830;41.876;23.474;2022-10-22T15:24:37;15.60;71.60
19389;DHT22;9830;41.876;23.474;2022-10-22T15:27:03;15.40;73.30
19389;DHT22;9830;41.876;23.474;2022-10-22T15:29:29;15.10;76.40
19389;DHT22;9830;41.876;23.474;2022-10-22T15:31:57;15.00;78.70
19389;DHT22;9830;41.876;23.474;2022-10-22T15:34:25;14.80;80.20
19389;DHT22;9830;41.876;23.474;2022-10-22T15:36:57;14.60;82.40
19389;DHT22;9830;41.876;23.474;2022-10-22T15:39:23;14.40;84.20
19389;DHT22;9830;41.876;23.474;2022-10-22T15:41:50;14.10;87.10
19389;DHT22;9830;41.876;23.474;2022-10-22T15:44:29;13.90;89.00
19389;DHT22;9830;41.876;23.474;2022-10-22T15:46:55;13.70;90.30
19389;DHT22;9830;41.876;23.474;2022-10-22T15:49:23;13.50;91.50
19389;DHT22;9830;41.876;23.474;2022-10-22T15:51:49;13.40;92.20
19389;DHT22;9830;41.876;23.474;2022-10-22T15:54:21;13.30;93.00
19389;DHT22;9830;41.876;23.474;2022-10-22T15:56:47;13.10;93.70
19389;DHT22;9830;41.876;23.474;2022-10-22T15:59:14;13.00;94.70
19389;DHT22;9830;41.876;23.474;2022-10-22T16:01:41;12.90;95.60
19389;DHT22;9830;41.876;23.474;2022-10-22T16:04:07;12.70;96.00
19389;DHT22;9830;41.876;23.474;2022-10-22T16:06:45;12.60;97.60
19389;DHT22;9830;41.876;23.474;2022-10-22T16:09:13;12.50;98.20
19389;DHT22;9830;41.876;23.474;2022-10-22T16:11:40;12.40;99.40
19389;DHT22;9830;41.876;23.474;2022-10-22T16:14:06;12.40;99.60
19389;DHT22;9830;41.876;23.474;2022-10-22T16:16:35;12.30;99.90
19389;DHT22;9830;41.876;23.474;2022-10-22T16:19:01;12.30;99.90
19389;DHT22;9830;41.876;23.474;2022-10-22T16:21:27;12.20;99.90
19389;DHT22;9830;41.876;23.474;2022-10-22T16:23:53;12.10;99.90
19389;DHT22;9830;41.876;23.474;2022-10-22T16:26:19;11.90;99.90
19389;DHT22;9830;41.876;23.474;2022-10-22T16:28:46;11.90;99.90
19389;DHT22;9830;41.876;23.474;2022-10-22T16:31:14;12.00;99.90
19389;DHT22;9830;41.876;23.474;2022-10-22T16:33:41;11.90;99.90
19389;DHT22;9830;41.876;23.474;2022-10-22T16:36:10;11.90;99.90
19389;DHT22;9830;41.876;23.474;2022-10-22T16:38:37;11.80;99.90
19389;DHT22;9830;41.876;23.474;2022-10-22T16:41:20;11.70;99.90
19389;DHT22;9830;41.876;23.474;2022-10-22T16:43:48;11.50;99.90
19389;DHT22;9830;41.876;23.474;2022-10-22T16:46:15;11.40;99.90
19389;DHT22;9830;41.876;23.474;2022-10-22T16:48:50;11.40;99.90
19389;DHT22;9830;41.876;23.474;2022-10-22T16:51:18;11.30;99.90
19389;DHT22;9830;41.876;23.474;2022-10-22T16:53:44;11.30;99.90
19389;DHT22;9830;41.876;23.474;2022-10-22T16:56:11;11.30;99.90
19389;DHT22;9830;41.876;23.474;2022-10-22T16:58:38;11.30;99.90
19389;DHT22;9830;41.876;23.474;2022-10-22T17:01:07;11.30;99.90
19389;DHT22;9830;41.876;23.474;2022-10-22T17:03:33;11.20;99.90
19389;DHT22;9830;41.876;23.474;2022-10-22T17:06:00;11.10;99.90
19389;DHT22;9830;41.876;23.474;2022-10-22T17:08:25;11.00;99.90
19389;DHT22;9830;41.876;23.474;2022-10-22T17:10:51;10.90;99.90
19389;DHT22;9830;41.876;23.474;2022-10-22T17:13:18;10.80;99.90
19389;DHT22;9830;41.876;23.474;2022-10-22T17:15:44;10.60;99.90
19389;DHT22;9830;41.876;23.474;2022-10-22T17:18:10;10.50;99.90
19389;DHT22;9830;41.876;23.474;2022-10-22T17:20:40;10.50;99.90
19389;DHT22;9830;41.876;23.474;2022-10-22T17:23:06;10.40;99.90
19389;DHT22;9830;41.876;23.474;2022-10-22T17:25:41;10.20;99.90
19389;DHT22;9830;41.876;23.474;2022-10-22T17:28:08;10.10;99.90
19389;DHT22;9830;41.876;23.474;2022-10-22T17:30:34;10.00;99.90
19389;DHT22;9830;41.876;23.474;2022-10-22T17:33:04;9.90;99.90
19389;DHT22;9830;41.876;23.474;2022-10-22T17:35:30;9.90;99.90
19389;DHT22;9830;41.876;23.474;2022-10-22T17:37:56;9.90;99.90
19389;DHT22;9830;41.876;23.474;2022-10-22T17:40:21;9.70;99.90
19389;DHT22;9830;41.876;23.474;2022-10-22T17:42:47;9.70;99.90
19389;DHT22;9830;41.876;23.474;2022-10-22T17:45:14;9.70;99.90
19389;DHT22;9830;41.876;23.474;2022-10-22T17:47:40;9.60;99.90
19389;DHT22;9830;41.876;23.474;2022-10-22T17:50:06;9.60;99.90
19389;DHT22;9830;41.876;23.474;2022-10-22T17:52:32;9.50;99.90
19389;DHT22;9830;41.876;23.474;2022-10-22T17:54:58;9.50;99.90
19389;DHT22;9830;41.876;23.474;2022-10-22T17:57:23;9.30;99.90
19389;DHT22;9830;41.876;23.474;2022-10-22T17:59:49;9.30;99.90
19389;DHT22;9830;41.876;23.474;2022-10-22T18:02:16;9.10;99.90
19389;DHT22;9830;41.876;23.474;2022-10-22T18:04:42;9.00;99.90
19389;DHT22;9830;41.876;23.474;2022-10-22T18:07:08;9.00;99.90
19389;DHT22;9830;41.876;23.474;2022-10-22T18:09:33;8.90;99.90
19389;DHT22;9830;41.876;23.474;2022-10-22T18:11:59;8.90;99.90